sensor_id;sensor_type;location;lat;lon;timestamp;pressure;altitude;pressure_sealevel;temperature;humidity
61898;BME280;47850;50.274;18.908;2023-05-22T00:01:11;98268.66;;;14.18;54.83
61898;BME280;47850;50.274;18.908;2023-05-22T00:03:42;98265.26;;;14.15;54.70
61898;BME280;47850;50.274;18.908;2023-05-22T00:06:10;98265.40;;;14.11;55.16
61898;BME280;47850;50.274;18.908;2023-05-22T00:08:38;98265.81;;;14.08;55.04
61898;BME280;47850;50.274;18.908;2023-05-22T00:11:06;98261.40;;;14.05;55.09
61898;BME280;47850;50.274;18.908;2023-05-22T00:13:33;98261.26;;;14.03;55.24
61898;BME280;47850;50.274;18.908;2023-05-22T00:16:01;98256.59;;;14.01;55.18
61898;BME280;47850;50.274;18.908;2023-05-22T00:18:32;98258.58;;;13.98;55.13
61898;BME280;47850;50.274;18.908;2023-05-22T00:21:00;98259.54;;;13.96;55.39
61898;BME280;47850;50.274;18.908;2023-05-22T00:23:27;98256.12;;;13.92;55.23
61898;BME280;47850;50.274;18.908;2023-05-22T00:25:56;98259.30;;;13.89;55.10
61898;BME280;47850;50.274;18.908;2023-05-22T00:28:24;98259.35;;;13.86;54.83
61898;BME280;47850;50.274;18.908;2023-05-22T00:30:51;98255.70;;;13.81;54.83
61898;BME280;47850;50.274;18.908;2023-05-22T00:33:19;98250.95;;;13.78;55.12
61898;BME280;47850;50.274;18.908;2023-05-22T00:35:47;98250.44;;;13.75;54.91
61898;BME280;47850;50.274;18.908;2023-05-22T00:38:31;98247.58;;;13.71;54.86
61898;BME280;47850;50.274;18.908;2023-05-22T00:41:03;98246.57;;;13.69;54.92
61898;BME280;47850;50.274;18.908;2023-05-22T00:43:32;98244.88;;;13.66;54.62
61898;BME280;47850;50.274;18.908;2023-05-22T00:46:00;98243.19;;;13.62;54.38
61898;BME280;47850;50.274;18.908;2023-05-22T00:48:28;98241.85;;;13.60;54.84
61898;BME280;47850;50.274;18.908;2023-05-22T00:50:56;98241.52;;;13.59;54.61
61898;BME280;47850;50.274;18.908;2023-05-22T00:53:27;98239.73;;;13.57;54.67
61898;BME280;47850;50.274;18.908;2023-05-22T00:55:56;98239.73;;;13.55;54.78
61898;BME280;47850;50.274;18.908;2023-05-22T00:58:25;98234.09;;;13.52;54.72
61898;BME280;47850;50.274;18.908;2023-05-22T01:00:54;98232.81;;;13.50;54.56
61898;BME280;47850;50.274;18.908;2023-05-22T01:03:23;98236.44;;;13.46;54.26
61898;BME280;47850;50.274;18.908;2023-05-22T01:05:52;98232.67;;;13.43;54.19
61898;BME280;47850;50.274;18.908;2023-05-22T01:08:20;98234.48;;;13.39;54.05
61898;BME280;47850;50.274;18.908;2023-05-22T01:10:56;98233.83;;;13.37;54.17
61898;BME280;47850;50.274;18.908;2023-05-22T01:14:13;98229.64;;;13.36;54.60
61898;BME280;47850;50.274;18.908;2023-05-22T01:22:13;98229.41;;;13.25;54.68
61898;BME280;47850;50.274;18.908;2023-05-22T01:27:41;98226.98;;;13.23;54.86
61898;BME280;47850;50.274;18.908;2023-05-22T01:32:45;98223.06;;;13.18;54.48
61898;BME280;47850;50.274;18.908;2023-05-22T01:35:16;98225.73;;;13.16;54.55
61898;BME280;47850;50.274;18.908;2023-05-22T01:37:45;98230.95;;;13.14;54.82
61898;BME280;47850;50.274;18.908;2023-05-22T01:40:14;98223.04;;;13.09;55.18
61898;BME280;47850;50.274;18.908;2023-05-22T01:42:44;98221.97;;;13.05;55.03
61898;BME280;47850;50.274;18.908;2023-05-22T01:45:13;98219.55;;;13.03;55.01
61898;BME280;47850;50.274;18.908;2023-05-22T01:47:41;98223.27;;;13.00;54.79
61898;BME280;47850;50.274;18.908;2023-05-22T01:50:09;98224.86;;;12.97;54.98
61898;BME280;47850;50.274;18.908;2023-05-22T01:55:15;98221.28;;;12.91;55.37
61898;BME280;47850;50.274;18.908;2023-05-22T01:58:03;98218.38;;;12.88;55.08
61898;BME280;47850;50.274;18.908;2023-05-22T02:00:36;98217.02;;;12.83;55.62
61898;BME280;47850;50.274;18.908;2023-05-22T02:03:14;98215.67;;;12.79;55.62
61898;BME280;47850;50.274;18.908;2023-05-22T02:05:44;98210.23;;;12.75;55.61
61898;BME280;47850;50.274;18.908;2023-05-22T02:08:15;98213.81;;;12.73;55.96
61898;BME280;47850;50.274;18.908;2023-05-22T02:10:44;98211.92;;;12.71;55.92
61898;BME280;47850;50.274;18.908;2023-05-22T02:13:12;98212.96;;;12.69;56.21
61898;BME280;47850;50.274;18.908;2023-05-22T02:15:44;98217.42;;;12.67;56.17
61898;BME280;47850;50.274;18.908;2023-05-22T02:18:13;98219.54;;;12.65;56.41
61898;BME280;47850;50.274;18.908;2023-05-22T02:20:41;98219.38;;;12.63;56.70
61898;BME280;47850;50.274;18.908;2023-05-22T02:23:08;98216.56;;;12.61;56.74
61898;BME280;47850;50.274;18.908;2023-05-22T02:25:37;98214.55;;;12.57;56.93
61898;BME280;47850;50.274;18.908;2023-05-22T02:28:05;98210.33;;;12.54;56.95
61898;BME280;47850;50.274;18.908;2023-05-22T02:30:32;98210.00;;;12.49;57.46
61898;BME280;47850;50.274;18.908;2023-05-22T02:33:00;98207.65;;;12.43;57.63
61898;BME280;47850;50.274;18.908;2023-05-22T02:35:32;98208.66;;;12.37;57.88
61898;BME280;47850;50.274;18.908;2023-05-22T02:38:00;98212.20;;;12.31;58.05
61898;BME280;47850;50.274;18.908;2023-05-22T02:40:28;98211.31;;;12.25;58.21
61898;BME280;47850;50.274;18.908;2023-05-22T02:42:56;98212.38;;;12.20;58.59
61898;BME280;47850;50.274;18.908;2023-05-22T02:45:23;98210.64;;;12.15;58.79
61898;BME280;47850;50.274;18.908;2023-05-22T02:47:51;98209.37;;;12.09;58.89
61898;BME280;47850;50.274;18.908;2023-05-22T02:50:19;98209.65;;;12.05;59.11
61898;BME280;47850;50.274;18.908;2023-05-22T02:52:47;98211.92;;;12.01;59.49
61898;BME280;47850;50.274;18.908;2023-05-22T02:55:15;98212.75;;;11.96;59.76
61898;BME280;47850;50.274;18.908;2023-05-22T02:57:43;98211.98;;;11.93;59.99
61898;BME280;47850;50.274;18.908;2023-05-22T03:00:11;98211.21;;;11.92;60.04
61898;BME280;47850;50.274;18.908;2023-05-22T03:02:39;98209.35;;;11.90;60.04
61898;BME280;47850;50.274;18.908;2023-05-22T03:05:07;98206.35;;;11.89;60.20
61898;BME280;47850;50.274;18.908;2023-05-22T03:07:35;98204.13;;;11.88;60.20
61898;BME280;47850;50.274;18.908;2023-05-22T03:10:03;98204.60;;;11.89;60.24
61898;BME280;47850;50.274;18.908;2023-05-22T03:12:31;98204.64;;;11.89;60.18
61898;BME280;47850;50.274;18.908;2023-05-22T03:14:59;98205.11;;;11.90;60.22
61898;BME280;47850;50.274;18.908;2023-05-22T03:17:27;98210.19;;;11.90;60.40
61898;BME280;47850;50.274;18.908;2023-05-22T03:19:55;98209.71;;;11.89;60.37
61898;BME280;47850;50.274;18.908;2023-05-22T03:22:22;98208.73;;;11.92;60.30
61898;BME280;47850;50.274;18.908;2023-05-22T03:24:50;98211.23;;;11.94;60.33
61898;BME280;47850;50.274;18.908;2023-05-22T03:27:18;98208.45;;;11.96;60.59
61898;BME280;47850;50.274;18.908;2023-05-22T03:29:46;98209.19;;;11.97;60.54
61898;BME280;47850;50.274;18.908;2023-05-22T03:32:14;98208.10;;;11.99;60.57
61898;BME280;47850;50.274;18.908;2023-05-22T03:34:42;98208.73;;;12.01;60.58
61898;BME280;47850;50.274;18.908;2023-05-22T03:37:10;98209.27;;;12.03;60.38
61898;BME280;47850;50.274;18.908;2023-05-22T03:39:38;98204.38;;;12.05;60.30
61898;BME280;47850;50.274;18.908;2023-05-22T03:42:06;98207.15;;;12.08;60.04
61898;BME280;47850;50.274;18.908;2023-05-22T03:44:34;98206.09;;;12.11;59.91
61898;BME280;47850;50.274;18.908;2023-05-22T03:47:02;98207.96;;;12.15;59.89
61898;BME280;47850;50.274;18.908;2023-05-22T03:49:29;98207.98;;;12.16;59.82
61898;BME280;47850;50.274;18.908;2023-05-22T03:51:57;98209.66;;;12.17;59.55
61898;BME280;47850;50.274;18.908;2023-05-22T03:54:25;98212.28;;;12.20;59.68
61898;BME280;47850;50.274;18.908;2023-05-22T03:56:53;98211.86;;;12.22;59.44
61898;BME280;47850;50.274;18.908;2023-05-22T03:59:21;98217.60;;;12.24;59.42
61898;BME280;47850;50.274;18.908;2023-05-22T04:01:48;98219.33;;;12.26;59.30
61898;BME280;47850;50.274;18.908;2023-05-22T04:04:17;98219.12;;;12.31;59.31
61898;BME280;47850;50.274;18.908;2023-05-22T04:06:45;98219.70;;;12.36;59.27
61898;BME280;47850;50.274;18.908;2023-05-22T04:09:13;98221.81;;;12.41;59.23
61898;BME280;47850;50.274;18.908;2023-05-22T04:11:41;98218.35;;;12.47;59.01
61898;BME280;47850;50.274;18.908;2023-05-22T04:14:09;98218.75;;;12.51;58.90
61898;BME280;47850;50.274;18.908;2023-05-22T04:16:37;98215.77;;;12.54;58.81
61898;BME280;47850;50.274;18.908;2023-05-22T04:19:05;98215.52;;;12.58;58.58
61898;BME280;47850;50.274;18.908;2023-05-22T04:21:33;98214.36;;;12.63;58.60
61898;BME280;47850;50.274;18.908;2023-05-22T04:24:02;98213.84;;;12.70;58.48
61898;BME280;47850;50.274;18.908;2023-05-22T04:26:33;98214.39;;;12.76;58.36
61898;BME280;47850;50.274;18.908;2023-05-22T04:29:03;98215.79;;;12.80;58.25
61898;BME280;47850;50.274;18.908;2023-05-22T04:31:32;98215.58;;;12.84;58.19
61898;BME280;47850;50.274;18.908;2023-05-22T04:34:01;98216.09;;;12.88;57.93
61898;BME280;47850;50.274;18.908;2023-05-22T04:36:29;98211.29;;;12.93;57.69
61898;BME280;47850;50.274;18.908;2023-05-22T04:38:57;98209.10;;;13.00;57.71
61898;BME280;47850;50.274;18.908;2023-05-22T04:41:26;98213.10;;;13.04;57.50
61898;BME280;47850;50.274;18.908;2023-05-22T04:43:55;98205.04;;;13.09;57.60
61898;BME280;47850;50.274;18.908;2023-05-22T04:46:23;98206.59;;;13.15;57.49
61898;BME280;47850;50.274;18.908;2023-05-22T04:48:50;98205.09;;;13.23;57.91
61898;BME280;47850;50.274;18.908;2023-05-22T04:51:19;98202.89;;;13.30;57.57
61898;BME280;47850;50.274;18.908;2023-05-22T04:53:49;98204.98;;;13.38;57.41
61898;BME280;47850;50.274;18.908;2023-05-22T04:56:18;98203.13;;;13.45;57.22
61898;BME280;47850;50.274;18.908;2023-05-22T04:58:46;98210.11;;;13.52;57.10
61898;BME280;47850;50.274;18.908;2023-05-22T05:01:16;98212.33;;;13.59;56.95
61898;BME280;47850;50.274;18.908;2023-05-22T05:03:44;98206.07;;;13.66;57.08
61898;BME280;47850;50.274;18.908;2023-05-22T05:06:12;98207.48;;;13.76;56.85
61898;BME280;47850;50.274;18.908;2023-05-22T05:08:39;98207.80;;;13.85;56.94
61898;BME280;47850;50.274;18.908;2023-05-22T05:11:10;98203.11;;;13.95;56.68
61898;BME280;47850;50.274;18.908;2023-05-22T05:13:38;98203.59;;;14.02;56.39
61898;BME280;47850;50.274;18.908;2023-05-22T05:16:06;98204.63;;;14.10;56.10
61898;BME280;47850;50.274;18.908;2023-05-22T05:18:34;98210.23;;;14.19;55.89
61898;BME280;47850;50.274;18.908;2023-05-22T05:21:02;98210.78;;;14.29;56.18
61898;BME280;47850;50.274;18.908;2023-05-22T05:23:30;98213.13;;;14.36;55.95
61898;BME280;47850;50.274;18.908;2023-05-22T05:25:57;98217.02;;;14.45;55.43
61898;BME280;47850;50.274;18.908;2023-05-22T05:28:25;98218.73;;;14.52;55.22
61898;BME280;47850;50.274;18.908;2023-05-22T05:30:53;98218.23;;;14.59;55.40
61898;BME280;47850;50.274;18.908;2023-05-22T05:33:21;98218.60;;;14.65;54.93
61898;BME280;47850;50.274;18.908;2023-05-22T05:35:49;98218.51;;;14.70;54.31
61898;BME280;47850;50.274;18.908;2023-05-22T05:38:19;98216.98;;;14.74;54.42
61898;BME280;47850;50.274;18.908;2023-05-22T05:40:47;98220.35;;;14.78;54.45
61898;BME280;47850;50.274;18.908;2023-05-22T05:43:15;98215.15;;;14.83;54.90
61898;BME280;47850;50.274;18.908;2023-05-22T05:45:43;98214.44;;;14.89;53.85
61898;BME280;47850;50.274;18.908;2023-05-22T05:48:11;98215.59;;;14.96;53.86
61898;BME280;47850;50.274;18.908;2023-05-22T05:50:39;98218.36;;;15.05;53.78
61898;BME280;47850;50.274;18.908;2023-05-22T05:53:07;98218.04;;;15.12;53.32
61898;BME280;47850;50.274;18.908;2023-05-22T05:55:35;98217.95;;;15.20;51.89
61898;BME280;47850;50.274;18.908;2023-05-22T05:58:03;98214.89;;;15.29;51.68
61898;BME280;47850;50.274;18.908;2023-05-22T06:00:31;98216.32;;;15.38;51.53
61898;BME280;47850;50.274;18.908;2023-05-22T06:02:59;98212.73;;;15.48;51.51
61898;BME280;47850;50.274;18.908;2023-05-22T06:05:27;98212.79;;;15.59;51.32
61898;BME280;47850;50.274;18.908;2023-05-22T06:07:55;98210.45;;;15.69;50.56
61898;BME280;47850;50.274;18.908;2023-05-22T06:10:25;98213.00;;;15.78;50.30
61898;BME280;47850;50.274;18.908;2023-05-22T06:12:53;98209.39;;;15.88;49.68
61898;BME280;47850;50.274;18.908;2023-05-22T06:15:21;98208.27;;;15.96;49.38
61898;BME280;47850;50.274;18.908;2023-05-22T06:17:49;98207.38;;;16.04;49.04
61898;BME280;47850;50.274;18.908;2023-05-22T06:20:17;98205.94;;;16.13;48.86
61898;BME280;47850;50.274;18.908;2023-05-22T06:22:44;98206.36;;;16.24;48.91
61898;BME280;47850;50.274;18.908;2023-05-22T06:25:13;98204.80;;;16.34;48.85
61898;BME280;47850;50.274;18.908;2023-05-22T06:27:41;98206.17;;;16.46;48.64
61898;BME280;47850;50.274;18.908;2023-05-22T06:30:10;98207.86;;;16.58;47.92
61898;BME280;47850;50.274;18.908;2023-05-22T06:32:38;98207.28;;;16.67;47.74
61898;BME280;47850;50.274;18.908;2023-05-22T06:35:06;98203.98;;;16.78;47.54
61898;BME280;47850;50.274;18.908;2023-05-22T06:37:34;98205.40;;;16.89;47.26
61898;BME280;47850;50.274;18.908;2023-05-22T06:40:04;98203.14;;;16.99;46.75
61898;BME280;47850;50.274;18.908;2023-05-22T06:42:32;98201.13;;;17.10;46.72
61898;BME280;47850;50.274;18.908;2023-05-22T06:45:00;98205.63;;;17.22;46.75
61898;BME280;47850;50.274;18.908;2023-05-22T06:47:29;98209.64;;;17.33;46.46
61898;BME280;47850;50.274;18.908;2023-05-22T06:49:57;98208.13;;;17.45;45.62
61898;BME280;47850;50.274;18.908;2023-05-22T06:52:25;98205.73;;;17.56;44.92
61898;BME280;47850;50.274;18.908;2023-05-22T06:54:52;98203.38;;;17.65;43.26
61898;BME280;47850;50.274;18.908;2023-05-22T06:57:21;98204.18;;;17.75;42.75
61898;BME280;47850;50.274;18.908;2023-05-22T06:59:50;98200.55;;;17.83;42.72
61898;BME280;47850;50.274;18.908;2023-05-22T07:02:18;98197.48;;;17.93;43.31
61898;BME280;47850;50.274;18.908;2023-05-22T07:04:46;98196.77;;;18.01;42.07
61898;BME280;47850;50.274;18.908;2023-05-22T07:07:13;98200.44;;;18.08;40.99
61898;BME280;47850;50.274;18.908;2023-05-22T07:09:41;98197.60;;;18.18;41.23
61898;BME280;47850;50.274;18.908;2023-05-22T07:12:09;98199.15;;;18.26;40.85
61898;BME280;47850;50.274;18.908;2023-05-22T07:14:37;98198.92;;;18.31;41.04
61898;BME280;47850;50.274;18.908;2023-05-22T07:17:05;98199.88;;;18.37;41.09
61898;BME280;47850;50.274;18.908;2023-05-22T07:19:32;98197.70;;;18.44;40.27
61898;BME280;47850;50.274;18.908;2023-05-22T07:22:02;98203.16;;;18.51;40.49
61898;BME280;47850;50.274;18.908;2023-05-22T07:24:29;98198.81;;;18.56;41.10
61898;BME280;47850;50.274;18.908;2023-05-22T07:26:57;98200.78;;;18.60;40.05
61898;BME280;47850;50.274;18.908;2023-05-22T07:29:25;98196.66;;;18.64;39.91
61898;BME280;47850;50.274;18.908;2023-05-22T07:31:53;98193.46;;;18.68;38.98
61898;BME280;47850;50.274;18.908;2023-05-22T07:34:20;98197.88;;;18.73;39.23
61898;BME280;47850;50.274;18.908;2023-05-22T07:36:49;98196.52;;;18.77;38.35
61898;BME280;47850;50.274;18.908;2023-05-22T07:39:17;98203.08;;;18.84;38.53
61898;BME280;47850;50.274;18.908;2023-05-22T07:41:48;98206.16;;;18.90;37.38
61898;BME280;47850;50.274;18.908;2023-05-22T07:44:19;98201.06;;;18.96;37.99
61898;BME280;47850;50.274;18.908;2023-05-22T07:46:46;98201.70;;;19.03;38.31
61898;BME280;47850;50.274;18.908;2023-05-22T07:49:14;98200.59;;;19.09;38.13
61898;BME280;47850;50.274;18.908;2023-05-22T07:51:46;98198.63;;;19.16;38.86
61898;BME280;47850;50.274;18.908;2023-05-22T07:54:14;98197.19;;;19.21;37.57
61898;BME280;47850;50.274;18.908;2023-05-22T07:56:43;98197.02;;;19.26;38.29
61898;BME280;47850;50.274;18.908;2023-05-22T07:59:12;98197.00;;;19.32;38.49
61898;BME280;47850;50.274;18.908;2023-05-22T08:01:41;98201.96;;;19.38;39.28
61898;BME280;47850;50.274;18.908;2023-05-22T08:04:09;98200.67;;;19.44;39.35
61898;BME280;47850;50.274;18.908;2023-05-22T08:06:37;98202.31;;;19.49;38.11
61898;BME280;47850;50.274;18.908;2023-05-22T08:09:06;98203.00;;;19.54;37.59
61898;BME280;47850;50.274;18.908;2023-05-22T08:11:33;98202.43;;;19.60;37.78
61898;BME280;47850;50.274;18.908;2023-05-22T08:14:04;98194.14;;;19.67;37.28
61898;BME280;47850;50.274;18.908;2023-05-22T08:16:32;98189.35;;;19.71;37.38
61898;BME280;47850;50.274;18.908;2023-05-22T08:19:00;98192.19;;;19.79;38.37
61898;BME280;47850;50.274;18.908;2023-05-22T08:21:28;98186.07;;;19.88;37.19
61898;BME280;47850;50.274;18.908;2023-05-22T08:23:55;98186.45;;;19.96;36.30
61898;BME280;47850;50.274;18.908;2023-05-22T08:26:23;98182.54;;;20.01;35.72
61898;BME280;47850;50.274;18.908;2023-05-22T08:28:51;98184.16;;;20.07;36.21
61898;BME280;47850;50.274;18.908;2023-05-22T08:31:19;98185.48;;;20.12;36.04
61898;BME280;47850;50.274;18.908;2023-05-22T08:33:47;98184.33;;;20.16;36.44
61898;BME280;47850;50.274;18.908;2023-05-22T08:36:15;98181.02;;;20.18;35.77
61898;BME280;47850;50.274;18.908;2023-05-22T08:38:43;98176.54;;;20.22;35.73
61898;BME280;47850;50.274;18.908;2023-05-22T08:41:11;98177.86;;;20.29;35.80
61898;BME280;47850;50.274;18.908;2023-05-22T08:43:40;98180.98;;;20.36;35.70
61898;BME280;47850;50.274;18.908;2023-05-22T08:46:08;98182.31;;;20.44;35.86
61898;BME280;47850;50.274;18.908;2023-05-22T08:48:37;98182.41;;;20.49;34.41
61898;BME280;47850;50.274;18.908;2023-05-22T08:51:06;98181.01;;;20.50;33.36
61898;BME280;47850;50.274;18.908;2023-05-22T08:53:35;98178.95;;;20.52;33.53
61898;BME280;47850;50.274;18.908;2023-05-22T08:56:04;98180.82;;;20.58;32.96
61898;BME280;47850;50.274;18.908;2023-05-22T08:58:34;98176.19;;;20.66;33.93
61898;BME280;47850;50.274;18.908;2023-05-22T09:01:04;98174.92;;;20.76;34.88
61898;BME280;47850;50.274;18.908;2023-05-22T09:03:34;98177.29;;;20.85;33.90
61898;BME280;47850;50.274;18.908;2023-05-22T09:06:03;98172.56;;;20.93;33.68
61898;BME280;47850;50.274;18.908;2023-05-22T09:08:31;98169.04;;;21.01;33.14
61898;BME280;47850;50.274;18.908;2023-05-22T09:10:58;98168.73;;;21.05;32.37
61898;BME280;47850;50.274;18.908;2023-05-22T09:13:28;98165.59;;;21.12;32.81
61898;BME280;47850;50.274;18.908;2023-05-22T09:15:58;98163.80;;;21.21;32.24
61898;BME280;47850;50.274;18.908;2023-05-22T09:18:27;98165.08;;;21.25;31.79
61898;BME280;47850;50.274;18.908;2023-05-22T09:20:59;98165.74;;;21.34;31.52
61898;BME280;47850;50.274;18.908;2023-05-22T09:23:28;98165.61;;;21.42;32.23
61898;BME280;47850;50.274;18.908;2023-05-22T09:25:57;98166.86;;;21.57;32.70
61898;BME280;47850;50.274;18.908;2023-05-22T09:28:26;98170.77;;;21.72;32.31
61898;BME280;47850;50.274;18.908;2023-05-22T09:30:59;98166.50;;;21.85;32.27
61898;BME280;47850;50.274;18.908;2023-05-22T09:33:27;98167.45;;;21.96;31.68
61898;BME280;47850;50.274;18.908;2023-05-22T09:35:57;98166.73;;;22.07;31.14
61898;BME280;47850;50.274;18.908;2023-05-22T09:38:28;98167.86;;;22.18;30.56
61898;BME280;47850;50.274;18.908;2023-05-22T09:40:56;98160.16;;;22.33;31.02
61898;BME280;47850;50.274;18.908;2023-05-22T09:43:24;98164.91;;;22.52;30.97
61898;BME280;47850;50.274;18.908;2023-05-22T09:45:56;98155.67;;;22.69;30.45
61898;BME280;47850;50.274;18.908;2023-05-22T09:48:27;98154.82;;;22.85;29.43
61898;BME280;47850;50.274;18.908;2023-05-22T09:50:58;98154.86;;;22.97;30.18
61898;BME280;47850;50.274;18.908;2023-05-22T09:53:27;98158.38;;;23.07;30.09
61898;BME280;47850;50.274;18.908;2023-05-22T09:55:55;98163.40;;;23.28;30.68
61898;BME280;47850;50.274;18.908;2023-05-22T09:58:29;98154.05;;;23.50;29.94
61898;BME280;47850;50.274;18.908;2023-05-22T10:00:57;98156.00;;;23.69;29.59
61898;BME280;47850;50.274;18.908;2023-05-22T10:03:30;98154.34;;;23.91;29.93
61898;BME280;47850;50.274;18.908;2023-05-22T10:05:59;98150.59;;;24.15;29.95
61898;BME280;47850;50.274;18.908;2023-05-22T10:08:27;98147.27;;;24.38;30.02
61898;BME280;47850;50.274;18.908;2023-05-22T10:10:56;98148.89;;;24.58;29.10
61898;BME280;47850;50.274;18.908;2023-05-22T10:13:25;98143.52;;;24.72;28.85
61898;BME280;47850;50.274;18.908;2023-05-22T10:15:53;98140.27;;;24.78;28.62
61898;BME280;47850;50.274;18.908;2023-05-22T10:18:22;98142.44;;;24.83;28.70
61898;BME280;47850;50.274;18.908;2023-05-22T10:20:51;98140.06;;;24.95;28.69
61898;BME280;47850;50.274;18.908;2023-05-22T10:23:19;98142.89;;;25.06;27.96
61898;BME280;47850;50.274;18.908;2023-05-22T10:25:49;98148.40;;;25.11;26.88
61898;BME280;47850;50.274;18.908;2023-05-22T10:28:24;98141.84;;;25.13;26.80
61898;BME280;47850;50.274;18.908;2023-05-22T10:31:35;98140.11;;;25.23;27.13
61898;BME280;47850;50.274;18.908;2023-05-22T10:34:10;98139.05;;;25.37;27.80
61898;BME280;47850;50.274;18.908;2023-05-22T10:39:42;98139.99;;;25.77;28.20
61898;BME280;47850;50.274;18.908;2023-05-22T10:42:14;98137.85;;;25.91;28.35
61898;BME280;47850;50.274;18.908;2023-05-22T10:44:42;98138.80;;;25.97;27.96
61898;BME280;47850;50.274;18.908;2023-05-22T10:47:10;98140.70;;;25.99;27.75
61898;BME280;47850;50.274;18.908;2023-05-22T10:49:42;98141.10;;;26.03;27.55
61898;BME280;47850;50.274;18.908;2023-05-22T10:52:11;98142.77;;;26.09;27.50
61898;BME280;47850;50.274;18.908;2023-05-22T10:54:42;98142.33;;;26.13;27.96
61898;BME280;47850;50.274;18.908;2023-05-22T10:57:14;98141.44;;;26.07;27.68
61898;BME280;47850;50.274;18.908;2023-05-22T10:59:45;98139.71;;;25.95;27.78
61898;BME280;47850;50.274;18.908;2023-05-22T11:02:28;98134.59;;;25.91;27.65
61898;BME280;47850;50.274;18.908;2023-05-22T11:07:45;98131.06;;;26.13;27.94
61898;BME280;47850;50.274;18.908;2023-05-22T11:10:13;98131.98;;;26.25;28.31
61898;BME280;47850;50.274;18.908;2023-05-22T11:12:40;98124.17;;;26.41;27.68
61898;BME280;47850;50.274;18.908;2023-05-22T11:15:09;98128.20;;;26.56;27.21
61898;BME280;47850;50.274;18.908;2023-05-22T11:17:46;98121.04;;;26.68;27.02
61898;BME280;47850;50.274;18.908;2023-05-22T11:20:20;98121.88;;;26.92;27.24
61898;BME280;47850;50.274;18.908;2023-05-22T11:22:59;98124.82;;;27.11;26.32
61898;BME280;47850;50.274;18.908;2023-05-22T11:25:27;98121.59;;;27.27;26.63
61898;BME280;47850;50.274;18.908;2023-05-22T11:27:56;98114.70;;;27.43;26.55
61898;BME280;47850;50.274;18.908;2023-05-22T11:30:25;98115.29;;;27.56;26.10
61898;BME280;47850;50.274;18.908;2023-05-22T11:32:56;98117.55;;;27.59;26.15
61898;BME280;47850;50.274;18.908;2023-05-22T11:35:25;98119.36;;;27.60;25.80
61898;BME280;47850;50.274;18.908;2023-05-22T11:37:54;98115.83;;;27.57;25.92
61898;BME280;47850;50.274;18.908;2023-05-22T11:40:23;98114.58;;;27.52;25.55
61898;BME280;47850;50.274;18.908;2023-05-22T11:42:52;98112.27;;;27.48;26.06
61898;BME280;47850;50.274;18.908;2023-05-22T11:45:20;98115.84;;;27.52;25.86
61898;BME280;47850;50.274;18.908;2023-05-22T11:47:48;98116.62;;;27.61;25.36
61898;BME280;47850;50.274;18.908;2023-05-22T11:50:16;98116.28;;;27.82;25.45
61898;BME280;47850;50.274;18.908;2023-05-22T11:52:44;98113.33;;;28.11;25.61
61898;BME280;47850;50.274;18.908;2023-05-22T11:55:13;98119.58;;;28.37;25.07
61898;BME280;47850;50.274;18.908;2023-05-22T11:57:40;98114.87;;;28.35;24.81
61898;BME280;47850;50.274;18.908;2023-05-22T12:00:10;98118.73;;;28.49;24.78
61898;BME280;47850;50.274;18.908;2023-05-22T12:02:43;98116.73;;;28.64;24.20
61898;BME280;47850;50.274;18.908;2023-05-22T12:05:11;98118.17;;;28.64;24.13
61898;BME280;47850;50.274;18.908;2023-05-22T12:07:39;98123.85;;;28.47;23.96
61898;BME280;47850;50.274;18.908;2023-05-22T12:10:07;98119.13;;;28.26;24.70
61898;BME280;47850;50.274;18.908;2023-05-22T12:12:36;98116.45;;;27.95;25.04
61898;BME280;47850;50.274;18.908;2023-05-22T12:15:05;98116.63;;;27.57;25.25
61898;BME280;47850;50.274;18.908;2023-05-22T12:17:34;98114.39;;;27.31;26.19
61898;BME280;47850;50.274;18.908;2023-05-22T12:20:04;98108.26;;;26.96;26.17
61898;BME280;47850;50.274;18.908;2023-05-22T12:22:39;98106.75;;;26.63;26.67
61898;BME280;47850;50.274;18.908;2023-05-22T12:25:15;98108.52;;;26.33;27.04
61898;BME280;47850;50.274;18.908;2023-05-22T12:27:44;98108.08;;;26.17;27.68
61898;BME280;47850;50.274;18.908;2023-05-22T12:30:13;98103.51;;;26.09;27.79
61898;BME280;47850;50.274;18.908;2023-05-22T12:32:46;98103.41;;;25.89;27.61
61898;BME280;47850;50.274;18.908;2023-05-22T12:35:16;98097.86;;;25.78;27.55
61898;BME280;47850;50.274;18.908;2023-05-22T12:37:49;98094.36;;;25.72;27.25
61898;BME280;47850;50.274;18.908;2023-05-22T12:40:17;98093.64;;;25.57;27.47
61898;BME280;47850;50.274;18.908;2023-05-22T12:42:46;98094.03;;;25.67;26.92
61898;BME280;47850;50.274;18.908;2023-05-22T12:45:14;98092.10;;;25.98;26.97
61898;BME280;47850;50.274;18.908;2023-05-22T12:47:44;98084.98;;;26.44;26.96
61898;BME280;47850;50.274;18.908;2023-05-22T12:50:12;98087.83;;;26.95;25.61
61898;BME280;47850;50.274;18.908;2023-05-22T12:52:40;98085.47;;;27.33;25.21
61898;BME280;47850;50.274;18.908;2023-05-22T12:55:09;98087.66;;;27.64;24.58
61898;BME280;47850;50.274;18.908;2023-05-22T12:57:37;98081.91;;;27.99;25.40
61898;BME280;47850;50.274;18.908;2023-05-22T13:00:05;98081.67;;;28.48;24.83
61898;BME280;47850;50.274;18.908;2023-05-22T13:02:35;98085.24;;;29.01;24.62
61898;BME280;47850;50.274;18.908;2023-05-22T13:05:04;98080.98;;;29.34;23.44
61898;BME280;47850;50.274;18.908;2023-05-22T13:07:31;98080.74;;;29.52;23.72
61898;BME280;47850;50.274;18.908;2023-05-22T13:10:04;98079.02;;;29.86;22.96
61898;BME280;47850;50.274;18.908;2023-05-22T13:12:32;98073.29;;;30.18;22.16
61898;BME280;47850;50.274;18.908;2023-05-22T13:15:00;98076.88;;;30.49;21.98
61898;BME280;47850;50.274;18.908;2023-05-22T13:17:28;98076.69;;;30.72;21.57
61898;BME280;47850;50.274;18.908;2023-05-22T13:19:57;98075.75;;;31.02;21.03